Time;durP1;ratioP1;P1;durP2;ratioP2;P2;SDS_P1;SDS_P2;PMS_P1;PMS_P2;Temp;Humidity;BMP_temperature;BMP_pressure;BME280_temperature;BME280_humidity;BME280_pressure;Samples;Min_cycle;Max_cycle;Signal;HPM_P1;HPM_P2
2022/07/05 00:00:33;;;;;;;6.93;3.83;;;;;;;18.96;61.31;102014.75;4935009;29;20546;-53
2022/07/05 00:03:00;;;;;;;7.65;3.92;;;;;;;18.95;61.09;102008.38;4937840;29;20503;-52
2022/07/05 00:05:28;;;;;;;6.70;3.95;;;;;;;18.91;61.31;102019.22;4936528;29;20083;-49
2022/07/05 00:07:56;;;;;;;10.73;4.25;;;;;;;18.86;61.57;102018.47;4920785;29;20054;-49
2022/07/05 00:10:23;;;;;;;6.85;4.18;;;;;;;18.80;61.81;102016.88;4934568;29;20517;-49
2022/07/05 00:12:51;;;;;;;6.97;3.95;;;;;;;18.76;62.10;102015.75;4934453;29;20058;-48
2022/07/05 00:15:19;;;;;;;7.03;4.35;;;;;;;18.75;62.09;102009.44;4939261;29;20051;-49
2022/07/05 00:17:46;;;;;;;7.47;4.10;;;;;;;18.76;62.06;102010.25;4921709;29;20043;-49
2022/07/05 00:20:14;;;;;;;11.85;4.40;;;;;;;18.74;62.23;102013.31;4936338;29;20071;-49
2022/07/05 00:22:42;;;;;;;9.55;4.63;;;;;;;18.71;62.32;102011.97;4923898;29;20048;-48
2022/07/05 00:25:10;;;;;;;8.80;5.15;;;;;;;18.68;62.43;102014.47;4936528;29;20048;-50
2022/07/05 00:27:37;;;;;;;9.25;4.93;;;;;;;18.64;62.33;102014.25;4937332;29;20052;-48
2022/07/05 00:30:06;;;;;;;7.25;4.68;;;;;;;18.60;62.54;102013.19;4919553;29;20044;-46
2022/07/05 00:32:34;;;;;;;6.90;4.38;;;;;;;18.59;62.64;102006.03;4937292;29;20050;-46
2022/07/05 00:35:02;;;;;;;11.68;5.13;;;;;;;18.60;62.80;102007.66;4938036;29;20049;-48
2022/07/05 00:37:29;;;;;;;11.27;4.82;;;;;;;18.59;62.72;102007.94;4930129;29;20070;-50
2022/07/05 00:39:57;;;;;;;9.05;5.10;;;;;;;18.58;62.54;102004.38;4951798;28;20046;-49
2022/07/05 00:42:25;;;;;;;9.15;5.10;;;;;;;18.56;62.68;101998.31;4936042;29;20048;-48
2022/07/05 00:44:52;;;;;;;8.18;4.93;;;;;;;18.53;62.82;102001.69;4936774;29;20483;-47
2022/07/05 00:47:20;;;;;;;8.63;4.82;;;;;;;18.46;63.28;102003.97;4935962;29;20054;-49
2022/07/05 00:49:48;;;;;;;11.85;4.97;;;;;;;18.45;63.43;102000.38;4919172;29;20050;-49
2022/07/05 00:52:16;;;;;;;8.35;4.53;;;;;;;18.47;63.40;101997.31;4919044;29;20042;-49
2022/07/05 00:54:47;;;;;;;9.07;5.10;;;;;;;18.44;63.28;102004.25;4920814;29;20036;-50
2022/07/05 00:57:15;;;;;;;7.80;5.05;;;;;;;18.39;63.38;102004.31;4942588;29;20066;-50
2022/07/05 00:59:43;;;;;;;9.75;5.18;;;;;;;18.38;63.75;102004.63;4918875;29;20099;-48
2022/07/05 01:02:11;;;;;;;10.77;5.30;;;;;;;18.37;63.67;101997.44;4918997;29;20039;-49
2022/07/05 01:04:48;;;;;;;8.20;5.22;;;;;;;18.38;63.77;102001.84;4920428;29;20407;-49
2022/07/05 01:07:18;;;;;;;11.13;4.80;;;;;;;18.37;63.68;102008.47;4920133;29;20050;-53
2022/07/05 01:09:45;;;;;;;7.35;4.72;;;;;;;18.37;63.79;102008.47;4919177;29;20053;-51
2022/07/05 01:12:13;;;;;;;10.65;5.13;;;;;;;18.37;63.94;102014.00;4940546;29;20503;-50
2022/07/05 01:14:42;;;;;;;10.65;5.20;;;;;;;18.35;63.90;102010.69;4941204;29;20043;-47
2022/07/05 01:17:10;;;;;;;9.95;5.20;;;;;;;18.33;63.89;102010.16;4939199;29;20037;-55
2022/07/05 01:19:38;;;;;;;8.05;5.00;;;;;;;18.30;63.85;102015.16;4954368;29;20440;-54
2022/07/05 01:22:15;;;;;;;8.52;4.57;;;;;;;18.29;63.88;102007.19;4923548;29;20130;-55
2022/07/05 01:24:44;;;;;;;9.85;5.22;;;;;;;18.28;63.97;102011.06;4946040;29;20043;-54
2022/07/05 01:27:12;;;;;;;7.90;5.28;;;;;;;18.26;64.02;102007.75;4931426;29;20577;-53
2022/07/05 01:29:40;;;;;;;9.07;5.10;;;;;;;18.22;64.12;102010.28;4951822;29;20043;-50
2022/07/05 01:32:08;;;;;;;8.45;5.03;;;;;;;18.18;64.53;102006.44;4932306;29;20035;-50
2022/07/05 01:34:40;;;;;;;8.50;4.82;;;;;;;18.15;64.72;102001.50;4943344;29;20043;-50
2022/07/05 01:37:09;;;;;;;8.35;4.82;;;;;;;18.15;64.66;102014.47;4929931;29;20553;-56
2022/07/05 01:39:37;;;;;;;9.00;4.65;;;;;;;18.08;65.10;102009.28;4943129;29;20138;-54
2022/07/05 01:42:05;;;;;;;8.10;5.18;;;;;;;18.02;65.23;102007.72;4922504;29;20051;-48
2022/07/05 01:44:33;;;;;;;9.80;5.10;;;;;;;17.96;65.62;102006.09;4932362;29;20047;-48
2022/07/05 01:47:05;;;;;;;8.35;4.93;;;;;;;17.91;65.78;102006.97;4939716;29;20036;-51
2022/07/05 01:49:36;;;;;;;8.00;4.85;;;;;;;17.91;66.12;102011.66;4922251;29;20044;-49
2022/07/05 01:52:10;;;;;;;9.35;5.50;;;;;;;17.90;65.85;102001.75;4907369;29;20047;-50
2022/07/05 01:54:39;;;;;;;8.13;5.47;;;;;;;17.80;66.32;102005.38;4922303;29;20048;-50
2022/07/05 01:57:08;;;;;;;10.30;5.97;;;;;;;17.66;67.27;101996.94;4921491;29;20501;-50
2022/07/05 01:59:36;;;;;;;10.63;5.88;;;;;;;17.63;67.43;101998.34;4922892;29;20579;-52
2022/07/05 02:02:07;;;;;;;8.63;5.95;;;;;;;17.63;67.33;102005.75;4923328;29;20127;-56
2022/07/05 02:04:36;;;;;;;9.07;5.47;;;;;;;17.58;67.61;102005.81;4921971;29;20040;-53
2022/07/05 02:07:08;;;;;;;9.50;5.75;;;;;;;17.53;68.02;101994.81;4922333;29;20376;-53
2022/07/05 02:09:38;;;;;;;9.93;5.35;;;;;;;17.49;68.07;101996.53;4922067;29;20058;-53
2022/07/05 02:12:06;;;;;;;7.85;5.25;;;;;;;17.43;68.66;101991.03;4922595;29;20512;-49
2022/07/05 02:14:34;;;;;;;9.77;5.80;;;;;;;17.45;68.49;101994.31;4921849;29;20130;-50
2022/07/05 02:17:06;;;;;;;8.80;5.50;;;;;;;17.47;68.26;101996.81;4923055;29;20040;-45
2022/07/05 02:19:37;;;;;;;12.05;5.85;;;;;;;17.42;68.74;101994.09;4916200;29;20046;-48
2022/07/05 02:22:06;;;;;;;10.00;5.55;;;;;;;17.32;69.03;101996.88;4921120;29;20126;-45
2022/07/05 02:24:34;;;;;;;8.43;5.10;;;;;;;17.29;69.39;101998.28;4921878;29;20090;-48
2022/07/05 02:27:12;;;;;;;12.30;5.38;;;;;;;17.34;68.82;101998.25;4926279;29;20082;-50
2022/07/05 02:29:41;;;;;;;10.65;5.10;;;;;;;17.36;68.70;101993.28;4926841;29;20044;-50
2022/07/05 02:32:10;;;;;;;10.63;5.18;;;;;;;17.40;68.63;101991.59;4921278;29;20067;-49
2022/07/05 02:34:38;;;;;;;9.10;5.20;;;;;;;17.46;68.34;102000.66;4921427;29;20111;-48
2022/07/05 02:37:05;;;;;;;8.38;4.97;;;;;;;17.50;68.24;102001.72;4936228;29;20118;-49
2022/07/05 02:39:34;;;;;;;9.90;5.45;;;;;;;17.44;68.08;101998.19;4921977;29;20071;-50
2022/07/05 02:42:03;;;;;;;12.30;5.70;;;;;;;17.37;68.73;102000.44;4921336;29;20451;-48
2022/07/05 02:44:32;;;;;;;9.60;5.22;;;;;;;17.34;68.77;101998.25;4921247;29;20058;-49
2022/07/05 02:46:59;;;;;;;8.68;5.32;;;;;;;17.35;69.16;102002.66;4938293;29;20123;-48
2022/07/05 02:49:30;;;;;;;10.82;5.22;;;;;;;17.37;69.03;102005.13;4920774;29;20095;-49
2022/07/05 02:51:58;;;;;;;10.98;5.15;;;;;;;17.36;68.75;102012.56;4920492;29;20048;-50
2022/07/05 02:54:26;;;;;;;11.30;5.93;;;;;;;17.26;69.30;102012.63;4920299;29;20043;-50
2022/07/05 02:56:55;;;;;;;9.15;4.85;;;;;;;17.16;69.79;102023.69;4923598;29;20554;-49
2022/07/05 02:59:24;;;;;;;9.63;5.13;;;;;;;17.09;70.11;102024.00;4920278;29;20040;-52
2022/07/05 03:01:52;;;;;;;8.20;4.85;;;;;;;17.10;69.85;102024.81;4938082;29;20058;-50
2022/07/05 03:04:20;;;;;;;8.88;5.28;;;;;;;17.11;70.07;102020.97;4921022;29;20036;-52
2022/07/05 03:06:53;;;;;;;10.07;5.43;;;;;;;17.20;70.10;102013.78;4920344;29;20513;-45
2022/07/05 03:09:25;;;;;;;10.38;5.25;;;;;;;17.24;69.24;102014.84;4953649;28;20094;-50
2022/07/05 03:11:53;;;;;;;9.70;5.63;;;;;;;17.20;69.43;102016.53;4901531;29;20064;-50
2022/07/05 03:14:21;;;;;;;10.80;5.85;;;;;;;17.07;69.95;102025.38;4916921;29;20067;-48
2022/07/05 03:16:50;;;;;;;10.70;5.38;;;;;;;17.03;70.66;102023.22;4920880;29;20051;-51
2022/07/05 03:19:20;;;;;;;10.80;5.45;;;;;;;17.10;70.39;102016.56;4924516;29;20122;-48
2022/07/05 03:21:48;;;;;;;10.50;5.53;;;;;;;17.15;70.23;102024.78;4921504;29;20055;-46
2022/07/05 03:24:16;;;;;;;12.43;5.20;;;;;;;17.20;70.00;102024.78;4925684;29;20048;-48
2022/07/05 03:26:43;;;;;;;8.30;5.32;;;;;;;17.19;70.05;102028.63;4905189;29;20063;-47
2022/07/05 03:29:11;;;;;;;9.55;5.30;;;;;;;17.17;69.94;102030.84;4921352;29;20509;-48
2022/07/05 03:31:41;;;;;;;9.52;5.32;;;;;;;17.17;70.27;102026.19;4928670;29;20043;-45
2022/07/05 03:34:09;;;;;;;8.55;5.20;;;;;;;17.18;70.23;102032.50;4920264;29;20450;-48
2022/07/05 03:36:37;;;;;;;8.60;4.63;;;;;;;17.19;70.34;102031.38;4920186;29;20055;-48
2022/07/05 03:39:10;;;;;;;11.43;5.18;;;;;;;17.22;70.24;102028.06;4921477;29;20410;-49
2022/07/05 03:41:38;;;;;;;10.48;5.63;;;;;;;17.24;70.13;102037.72;4920638;29;20130;-49
2022/07/05 03:44:07;;;;;;;10.05;5.68;;;;;;;17.24;70.09;102047.88;4921247;29;20114;-53
2022/07/05 03:46:35;;;;;;;9.57;5.35;;;;;;;17.25;69.96;102044.03;4919537;29;20055;-51
2022/07/05 03:49:03;;;;;;;12.38;5.97;;;;;;;17.23;70.11;102035.22;4919794;29;20127;-48
2022/07/05 03:51:31;;;;;;;9.88;5.82;;;;;;;17.23;69.91;102027.78;4952551;28;20551;-49
2022/07/05 03:54:01;;;;;;;12.25;5.88;;;;;;;17.24;70.00;102034.13;4919813;29;20108;-48
2022/07/05 03:56:29;;;;;;;9.82;5.97;;;;;;;17.21;70.24;102030.00;4920839;29;20047;-47
2022/07/05 03:59:01;;;;;;;14.35;6.47;;;;;;;17.21;70.34;102037.44;4919824;29;20071;-50
2022/07/05 04:01:30;;;;;;;10.75;5.88;;;;;;;17.23;70.33;102043.50;4920205;29;20138;-51
2022/07/05 04:03:58;;;;;;;10.20;6.53;;;;;;;17.24;70.26;102047.88;4937990;29;20483;-50
2022/07/05 04:06:29;;;;;;;14.07;7.05;;;;;;;17.27;69.93;102047.34;4918436;29;20459;-49
2022/07/05 04:08:59;;;;;;;14.40;7.40;;;;;;;17.28;70.14;102048.97;4919486;29;20055;-50
2022/07/05 04:11:27;;;;;;;12.82;7.32;;;;;;;17.30;70.15;102055.03;4936420;29;20060;-50
2022/07/05 04:13:55;;;;;;;13.52;7.55;;;;;;;17.32;70.20;102051.97;4919522;29;20135;-49
2022/07/05 04:16:22;;;;;;;16.73;8.27;;;;;;;17.32;70.41;102055.56;4919828;29;20044;-49
2022/07/05 04:18:50;;;;;;;13.35;7.60;;;;;;;17.31;70.41;102048.41;4951038;29;20047;-50
2022/07/05 04:21:18;;;;;;;13.95;7.43;;;;;;;17.31;70.20;102047.59;4922572;29;20066;-49
2022/07/05 04:23:46;;;;;;;11.98;7.80;;;;;;;17.32;70.11;102055.56;4952272;28;20050;-49
2022/07/05 04:26:16;;;;;;;13.70;8.00;;;;;;;17.33;70.26;102054.47;4918931;29;20612;-50
2022/07/05 04:28:45;;;;;;;11.88;7.75;;;;;;;17.34;70.12;102052.53;4935536;29;20495;-46
2022/07/05 04:31:19;;;;;;;21.77;7.90;;;;;;;17.35;70.07;102052.25;4903338;29;20092;-49
2022/07/05 04:33:50;;;;;;;16.25;7.68;;;;;;;17.35;70.18;102060.50;4919768;29;20407;-49
2022/07/05 04:36:22;;;;;;;11.30;7.40;;;;;;;17.36;69.89;102062.16;4950379;28;20051;-49
2022/07/05 04:38:53;;;;;;;12.15;8.10;;;;;;;17.38;69.66;102062.69;4919563;29;20048;-51
2022/07/05 04:41:22;;;;;;;13.85;7.90;;;;;;;17.39;69.92;102061.59;4919922;29;20107;-49
2022/07/05 04:43:50;;;;;;;13.55;7.60;;;;;;;17.41;69.88;102064.06;4919952;29;20054;-51
2022/07/05 04:46:17;;;;;;;11.95;7.82;;;;;;;17.43;69.96;102064.59;4903249;29;20043;-48
2022/07/05 04:48:47;;;;;;;13.25;7.90;;;;;;;17.43;69.91;102062.66;4934174;29;20040;-51
2022/07/05 04:51:15;;;;;;;13.57;7.63;;;;;;;17.44;69.70;102064.31;4920016;29;20146;-48
2022/07/05 04:53:43;;;;;;;13.90;7.70;;;;;;;17.46;69.69;102062.13;4918731;29;20039;-48
2022/07/05 04:56:11;;;;;;;12.25;7.43;;;;;;;17.49;69.81;102059.91;4934999;29;20444;-49
2022/07/05 04:58:40;;;;;;;12.30;7.45;;;;;;;17.51;70.01;102063.16;4950328;29;20051;-53
2022/07/05 05:01:07;;;;;;;11.45;7.57;;;;;;;17.52;69.75;102064.84;4936641;29;20127;-48
2022/07/05 05:03:35;;;;;;;12.45;7.70;;;;;;;17.52;69.82;102060.13;4935710;29;20044;-53
2022/07/05 05:06:03;;;;;;;13.68;8.50;;;;;;;17.51;69.71;102049.38;4935063;29;20050;-50
2022/07/05 05:08:30;;;;;;;14.10;8.93;;;;;;;17.49;69.63;102059.91;4918244;29;20069;-49
2022/07/05 05:10:58;;;;;;;13.07;8.32;;;;;;;17.49;70.26;102059.91;4936025;29;20056;-49
2022/07/05 05:13:26;;;;;;;11.60;8.07;;;;;;;17.48;69.90;102063.75;4940789;29;20124;-49
2022/07/05 05:15:53;;;;;;;10.90;7.60;;;;;;;17.49;70.18;102065.41;4939441;29;20487;-52
2022/07/05 05:18:24;;;;;;;12.88;7.68;;;;;;;17.51;70.04;102061.25;4935109;29;20039;-48
2022/07/05 05:20:51;;;;;;;10.20;6.00;;;;;;;17.56;70.34;102065.91;4938593;29;20135;-50
2022/07/05 05:23:19;;;;;;;11.90;7.57;;;;;;;17.59;70.41;102062.59;4949053;29;20050;-50
2022/07/05 05:25:47;;;;;;;12.57;8.85;;;;;;;17.56;70.04;102060.41;4597644;29;10000635;-50
2022/07/05 05:28:15;;;;;;;10.82;7.75;;;;;;;17.57;70.43;102070.31;4915001;29;20067;-48
2022/07/05 05:30:43;;;;;;;13.32;7.60;;;;;;;17.58;70.47;102072.78;4932496;29;20071;-50
2022/07/05 05:33:10;;;;;;;13.50;8.15;;;;;;;17.60;70.63;102084.34;4931975;29;20135;-50
2022/07/05 05:35:38;;;;;;;12.38;7.88;;;;;;;17.61;70.34;102079.66;4931875;29;20435;-48
2022/07/05 05:38:06;;;;;;;12.07;8.45;;;;;;;17.60;70.32;102084.34;4934272;29;20044;-48
2022/07/05 05:40:33;;;;;;;11.40;7.28;;;;;;;17.62;70.12;102079.38;4932330;29;20406;-50
2022/07/05 05:43:01;;;;;;;11.40;7.18;;;;;;;17.66;70.02;102088.72;4932409;29;20145;-52
2022/07/05 05:45:29;;;;;;;12.70;6.78;;;;;;;17.70;70.13;102083.44;4946373;28;20502;-48
2022/07/05 05:47:58;;;;;;;10.43;6.68;;;;;;;17.73;70.15;102082.91;4932086;29;20134;-46
2022/07/05 05:50:31;;;;;;;13.50;8.85;;;;;;;17.70;69.94;102083.44;4920661;29;20524;-48
2022/07/05 05:52:59;;;;;;;12.85;8.55;;;;;;;17.67;70.06;102089.53;4923837;29;20047;-46
2022/07/05 05:55:27;;;;;;;11.80;6.72;;;;;;;17.68;70.40;102091.19;4936292;29;20043;-46
2022/07/05 05:57:57;;;;;;;12.40;7.50;;;;;;;17.73;70.35;102098.63;4949653;28;20043;-47
2022/07/05 06:00:25;;;;;;;10.55;6.35;;;;;;;17.77;70.10;102091.41;4949679;29;20063;-48
2022/07/05 06:02:53;;;;;;;10.18;6.13;;;;;;;17.79;70.01;102098.28;4938578;29;20062;-47
2022/07/05 06:05:21;;;;;;;12.38;6.13;;;;;;;17.86;70.22;102098.00;4918696;29;20043;-46
2022/07/05 06:07:51;;;;;;;10.30;5.97;;;;;;;17.93;70.15;102100.44;4937556;29;20047;-52
2022/07/05 06:10:30;;;;;;;12.20;6.43;;;;;;;17.97;70.10;102101.53;4938948;29;20102;-49
2022/07/05 06:12:59;;;;;;;10.40;6.38;;;;;;;17.97;70.03;102109.78;4921457;29;20495;-48
2022/07/05 06:15:27;;;;;;;13.88;8.10;;;;;;;17.89;70.52;102108.44;4941040;29;20040;-49
2022/07/05 06:17:55;;;;;;;12.60;7.70;;;;;;;17.83;71.03;102118.69;4938279;29;20044;-50
2022/07/05 06:20:30;;;;;;;11.82;6.00;;;;;;;17.84;70.95;102114.00;4933717;29;20040;-49
2022/07/05 06:23:00;;;;;;;14.68;6.60;;;;;;;17.92;71.02;102112.56;4939905;29;20505;-50
2022/07/05 06:25:28;;;;;;;12.07;6.47;;;;;;;17.91;71.38;102110.94;4920640;29;20050;-48
2022/07/05 06:27:59;;;;;;;10.50;6.68;;;;;;;17.89;71.64;102111.22;4938972;29;20051;-44
2022/07/05 06:30:30;;;;;;;11.77;6.82;;;;;;;17.87;71.95;102108.75;4938441;29;20048;-45
2022/07/05 06:32:58;;;;;;;14.13;7.63;;;;;;;17.87;72.13;102111.50;4941438;29;20035;-45
2022/07/05 06:35:26;;;;;;;11.85;6.63;;;;;;;17.93;71.63;102108.72;4934580;29;20044;-47
2022/07/05 06:38:05;;;;;;;16.05;7.28;;;;;;;17.95;71.04;102118.34;4936667;29;20134;-48
2022/07/05 06:40:35;;;;;;;11.73;6.90;;;;;;;17.96;70.75;102119.16;4922130;29;20119;-46
2022/07/05 06:43:05;;;;;;;12.45;6.63;;;;;;;17.97;70.71;102115.31;4938029;29;20044;-47
2022/07/05 06:45:55;;;;;;;9.07;5.10;;;;;;;18.02;70.53;102120.78;4921952;29;20554;-50
2022/07/05 06:48:23;;;;;;;13.52;7.05;;;;;;;18.06;70.48;102122.69;4937518;29;20056;-48
2022/07/05 06:50:51;;;;;;;10.40;6.18;;;;;;;18.11;69.95;102121.81;4937747;29;20052;-46
2022/07/05 06:53:18;;;;;;;8.15;4.80;;;;;;;18.18;69.75;102121.47;4944504;29;20039;-46
2022/07/05 06:55:46;;;;;;;11.13;5.43;;;;;;;18.18;69.13;102122.31;4924385;29;20483;-46
2022/07/05 06:58:22;;;;;;;9.10;5.32;;;;;;;18.22;69.18;102119.81;4937792;29;20124;-45
2022/07/05 07:00:49;;;;;;;11.32;6.50;;;;;;;18.24;69.21;102126.69;4937522;29;20047;-44
2022/07/05 07:03:38;;;;;;;8.48;5.05;;;;;;;18.21;69.46;102121.75;4937923;29;20368;-46
2022/07/05 07:06:25;;;;;;;10.60;5.18;;;;;;;18.22;69.30;102128.09;4921226;29;20043;-43
2022/07/05 07:11:38;;;;;;;14.40;6.73;;;;;;;18.22;69.48;102122.56;4930522;29;20040;-50
2022/07/05 07:14:06;;;;;;;13.32;6.20;;;;;;;18.20;69.47;102136.63;4940403;29;20042;-47
2022/07/05 07:16:34;;;;;;;27.35;9.65;;;;;;;18.29;69.03;102123.88;4938078;29;20039;-48
2022/07/05 07:19:01;;;;;;;14.02;8.00;;;;;;;18.31;68.67;102123.59;4938085;29;20503;-51
2022/07/05 07:21:40;;;;;;;14.85;6.20;;;;;;;18.31;67.65;102127.19;4937353;29;20123;-45
2022/07/05 07:24:09;;;;;;;17.00;6.38;;;;;;;18.29;66.47;102128.56;4937446;29;20503;-46
2022/07/05 07:29:23;;;;;;;18.42;7.03;;;;;;;18.39;66.84;102135.94;4919228;29;20040;-46
2022/07/05 07:31:51;;;;;;;16.20;6.55;;;;;;;18.44;66.49;102133.13;4938444;29;20040;-43
2022/07/05 07:34:18;;;;;;;22.00;8.05;;;;;;;18.51;66.56;102136.38;4937331;29;20051;-47
2022/07/05 07:36:46;;;;;;;27.65;7.60;;;;;;;18.55;66.47;102137.47;4937240;29;20048;-46
2022/07/05 07:39:14;;;;;;;12.00;5.43;;;;;;;18.57;66.46;102140.75;4938270;29;20056;-46
2022/07/05 07:41:42;;;;;;;10.43;6.22;;;;;;;18.57;66.61;102140.75;4923933;29;20765;-50
2022/07/05 07:44:09;;;;;;;13.25;6.47;;;;;;;18.58;66.86;102136.88;4930651;29;20055;-48
2022/07/05 07:46:39;;;;;;;15.43;5.20;;;;;;;18.61;66.91;102141.81;4921626;29;20054;-44
2022/07/05 07:49:07;;;;;;;13.43;5.25;;;;;;;18.65;66.87;102142.88;4942124;29;20506;-49
2022/07/05 07:51:35;;;;;;;12.48;5.20;;;;;;;18.66;66.82;102150.03;4960111;28;20058;-49
2022/07/05 07:54:03;;;;;;;15.70;6.38;;;;;;;18.70;66.92;102140.06;4944680;29;20051;-48
2022/07/05 07:56:37;;;;;;;10.65;6.03;;;;;;;18.71;67.42;102146.41;4943624;29;20072;-50
2022/07/05 07:59:04;;;;;;;11.35;5.55;;;;;;;18.74;67.36;102146.66;4938100;29;20043;-48
2022/07/05 08:01:32;;;;;;;10.52;5.53;;;;;;;18.74;67.76;102145.84;4936569;29;20047;-49
2022/07/05 08:04:05;;;;;;;10.32;4.40;;;;;;;18.81;67.15;102151.88;4950746;29;20044;-51
2022/07/05 08:06:32;;;;;;;11.68;5.32;;;;;;;18.85;67.27;102152.13;4940200;29;20039;-46
2022/07/05 08:09:00;;;;;;;8.65;3.78;;;;;;;18.86;67.14;102151.84;4939492;29;20040;-44
2022/07/05 08:11:28;;;;;;;8.75;4.60;;;;;;;18.87;67.45;102147.94;4936469;29;20047;-44
2022/07/05 08:13:56;;;;;;;14.65;5.70;;;;;;;18.96;67.76;102153.66;4936425;29;20040;-42
2022/07/05 08:16:23;;;;;;;11.25;5.72;;;;;;;18.97;68.16;102158.06;4936583;29;20039;-47
2022/07/05 08:21:40;;;;;;;;;;;;;;;19.01;66.85;102156.38;4925613;29;20043;-45
2022/07/05 08:24:12;;;;;;;10.90;5.25;;;;;;;19.03;68.04;102148.63;4936327;29;19930;-47
2022/07/05 08:26:41;;;;;;;10.77;5.13;;;;;;;19.05;68.18;102151.91;4942460;29;20058;-46
2022/07/05 08:29:10;;;;;;;10.23;5.78;;;;;;;19.04;68.53;102158.53;4924043;29;20048;-46
2022/07/05 08:31:43;;;;;;;10.90;4.65;;;;;;;19.04;68.34;102150.25;4888880;29;20470;-48
2022/07/05 08:34:11;;;;;;;10.68;5.90;;;;;;;19.09;68.01;102152.97;4936119;29;20065;-48
2022/07/05 08:36:41;;;;;;;11.98;6.32;;;;;;;19.10;68.40;102151.84;4944932;29;20043;-51
2022/07/05 08:39:09;;;;;;;10.27;4.07;;;;;;;19.13;67.35;102148.50;4936601;29;20047;-50
2022/07/05 08:41:38;;;;;;;12.73;5.32;;;;;;;19.21;67.93;102143.44;4919661;29;20130;-46
2022/07/05 08:44:06;;;;;;;7.28;2.80;;;;;;;19.32;66.83;102145.78;4920310;29;20451;-49
2022/07/05 08:46:38;;;;;;;9.98;4.70;;;;;;;19.34;67.56;102153.81;4932243;29;20040;-48
2022/07/05 08:49:06;;;;;;;12.65;5.72;;;;;;;19.35;67.74;102149.91;4935464;29;20060;-48
2022/07/05 08:51:39;;;;;;;12.38;6.53;;;;;;;19.33;68.15;102149.38;4935847;29;20400;-47
2022/07/05 08:54:11;;;;;;;13.82;5.75;;;;;;;19.28;68.76;102141.97;4936077;29;20413;-48
2022/07/05 08:56:42;;;;;;;15.90;5.90;;;;;;;19.30;68.44;102138.91;4936632;29;20043;-49
2022/07/05 08:59:30;;;;;;;5.45;3.00;;;;;;;19.37;67.07;102136.63;4920587;29;20062;-49
2022/07/05 09:01:57;;;;;;;10.90;5.88;;;;;;;19.38;69.45;102141.00;4935546;29;20040;-48
2022/07/05 09:04:30;;;;;;;9.57;4.88;;;;;;;19.36;68.20;102143.25;4918978;29;20499;-48
2022/07/05 09:07:02;;;;;;;5.50;3.15;;;;;;;19.36;67.53;102141.31;4935079;29;20518;-48
2022/07/05 09:09:31;;;;;;;13.40;5.90;;;;;;;19.36;68.02;102141.31;4936548;29;20040;-48
2022/07/05 09:12:00;;;;;;;13.13;5.60;;;;;;;19.33;66.80;102147.44;4955675;28;20532;-49
2022/07/05 09:14:47;;;;;;;9.57;5.05;;;;;;;19.32;66.76;102145.78;4921084;29;20035;-50
2022/07/05 09:17:15;;;;;;;12.52;5.40;;;;;;;19.37;67.50;102151.25;4935250;29;20056;-48
2022/07/05 09:19:43;;;;;;;9.38;4.38;;;;;;;19.47;66.68;102147.53;4935299;29;20501;-49
2022/07/05 09:22:11;;;;;;;11.80;5.05;;;;;;;19.53;65.51;102148.28;4939720;29;20390;-49
2022/07/05 09:24:45;;;;;;;14.18;5.50;;;;;;;19.56;65.19;102151.28;4936071;29;20054;-48
2022/07/05 09:27:14;;;;;;;10.80;5.82;;;;;;;19.59;65.79;102150.69;4918696;29;20127;-50
2022/07/05 09:29:58;;;;;;;11.77;5.03;;;;;;;19.59;64.92;102147.94;4949719;28;20522;-48
2022/07/05 09:32:31;;;;;;;6.25;3.03;;;;;;;19.62;61.33;102143.75;4932847;29;20063;-48
2022/07/05 09:35:19;;;;;;;8.30;3.08;;;;;;;19.74;61.31;102141.41;4938935;29;20046;-46
2022/07/05 09:37:47;;;;;;;9.13;2.95;;;;;;;19.79;59.93;102143.28;4918641;29;20050;-46
2022/07/05 09:40:15;;;;;;;9.38;4.70;;;;;;;19.77;57.79;102137.22;4939034;29;20102;-48
2022/07/05 09:42:47;;;;;;;3.70;2.05;;;;;;;19.75;62.16;102142.25;4941654;29;20046;-48
2022/07/05 09:45:25;;;;;;;11.98;4.00;;;;;;;19.73;60.10;102144.47;4939112;29;20499;-50
2022/07/05 09:47:55;;;;;;;7.65;3.20;;;;;;;19.71;60.78;102142.00;4940155;29;20079;-49
2022/07/05 09:50:46;;;;;;;3.70;2.33;;;;;;;19.78;61.65;102144.41;4926387;29;20035;-50
2022/07/05 09:53:54;;;;;;;9.18;3.53;;;;;;;19.70;56.40;102139.53;4925051;29;20070;-49
2022/07/05 09:56:29;;;;;;;5.80;2.90;;;;;;;19.64;56.65;102140.69;4931236;29;20047;-49
2022/07/05 09:59:21;;;;;;;10.63;3.30;;;;;;;19.63;57.22;102142.66;4938574;29;20514;-52
2022/07/05 10:01:51;;;;;;;10.50;3.75;;;;;;;19.71;58.15;102138.41;4927227;29;20414;-46
2022/07/05 10:04:18;;;;;;;8.20;3.25;;;;;;;19.65;55.99;102143.19;4925880;29;20111;-47
2022/07/05 10:06:46;;;;;;;8.93;3.75;;;;;;;19.63;55.53;102144.59;4939479;29;20044;-46
2022/07/05 10:09:14;;;;;;;10.93;3.33;;;;;;;19.60;57.32;102143.22;4948291;29;20051;-45
2022/07/05 10:11:44;;;;;;;8.40;3.22;;;;;;;19.61;57.78;102144.06;4940701;29;20431;-48
2022/07/05 10:14:17;;;;;;;7.20;3.50;;;;;;;19.61;57.70;102135.78;4922295;29;20042;-50
2022/07/05 10:16:47;;;;;;;10.52;3.60;;;;;;;19.65;57.86;102145.09;4939003;29;20175;-53
2022/07/05 10:19:21;;;;;;;11.35;3.80;;;;;;;19.75;58.36;102139.47;4921658;29;20342;-51
2022/07/05 10:21:49;;;;;;;13.07;3.75;;;;;;;19.85;58.08;102131.03;4601435;29;9999965;-49
2022/07/05 10:24:38;;;;;;;10.75;3.50;;;;;;;19.94;57.29;102134.75;4905761;29;20044;-53
2022/07/05 10:27:08;;;;;;;11.02;4.65;;;;;;;20.06;57.81;102134.31;4937643;29;20046;-50
2022/07/05 10:29:37;;;;;;;10.45;3.40;;;;;;;20.14;56.54;102133.63;4935252;29;20051;-51
2022/07/05 10:32:08;;;;;;;8.68;4.40;;;;;;;20.16;55.55;102136.09;4919701;29;20054;-49
2022/07/05 10:34:36;;;;;;;8.80;3.45;;;;;;;20.15;55.06;102135.25;4928500;29;20135;-49
2022/07/05 10:37:28;;;;;;;7.70;3.42;;;;;;;20.19;55.15;102129.94;4920958;29;20055;-48
2022/07/05 10:39:58;;;;;;;10.30;3.80;;;;;;;20.18;55.25;102140.22;4947910;29;20055;-47
2022/07/05 10:42:31;;;;;;;9.82;3.90;;;;;;;20.15;55.47;102140.78;4923285;29;20039;-46
2022/07/05 10:44:58;;;;;;;6.78;3.78;;;;;;;20.09;56.46;102139.25;4933971;29;20491;-50
2022/07/05 10:47:29;;;;;;;10.02;4.15;;;;;;;20.08;56.78;102131.22;4935106;29;20114;-49
2022/07/05 10:50:05;;;;;;;8.55;3.70;;;;;;;20.08;57.61;102139.53;4935900;29;20539;-46
2022/07/05 10:52:33;;;;;;;15.60;6.10;;;;;;;20.11;57.89;102133.41;4935592;29;20512;-46
2022/07/05 10:55:20;;;;;;;13.50;4.20;;;;;;;20.22;57.09;102134.88;4954387;28;20498;-50
2022/07/05 10:58:15;;;;;;;10.88;4.10;;;;;;;20.31;55.87;102127.53;4931560;29;20126;-49
2022/07/05 11:00:43;;;;;;;8.52;3.60;;;;;;;20.27;53.46;102122.91;4934577;29;20048;-50
2022/07/05 11:03:36;;;;;;;12.02;3.65;;;;;;;20.17;54.62;102132.19;4934067;29;20075;-51
2022/07/05 11:06:05;;;;;;;8.40;3.70;;;;;;;20.08;55.61;102139.53;4911557;29;20503;-51
2022/07/05 11:09:02;;;;;;;9.32;3.78;;;;;;;20.01;56.58;102148.19;4934540;29;20040;-48
2022/07/05 11:11:37;;;;;;;8.90;3.70;;;;;;;19.92;57.78;102145.31;4916239;29;20058;-48
2022/07/05 11:14:22;;;;;;;12.02;3.90;;;;;;;19.88;58.47;102149.78;4935340;29;20040;-47
2022/07/05 11:17:11;;;;;;;13.25;4.22;;;;;;;19.83;58.39;102152.63;4935514;29;20054;-50
2022/07/05 11:20:13;;;;;;;11.63;4.28;;;;;;;19.72;58.28;102160.25;4943382;29;20043;-49
2022/07/05 11:23:02;;;;;;;11.13;3.75;;;;;;;19.72;58.93;102163.03;4933964;29;20043;-50
2022/07/05 11:25:31;;;;;;;7.53;3.95;;;;;;;19.75;58.34;102153.31;4935363;29;20048;-52
2022/07/05 11:28:05;;;;;;;9.18;4.40;;;;;;;19.85;58.23;102146.81;4917361;29;20047;-49
2022/07/05 11:30:50;;;;;;;12.80;3.95;;;;;;;19.84;57.39;102140.44;4943710;29;20079;-51
2022/07/05 11:33:32;;;;;;;9.30;4.22;;;;;;;19.88;57.24;102135.13;4905127;29;20051;-49
2022/07/05 11:36:01;;;;;;;8.90;4.38;;;;;;;19.89;57.76;102136.75;4917790;29;20044;-46
2022/07/05 11:38:30;;;;;;;9.27;4.60;;;;;;;19.88;57.23;102135.94;4934066;29;20050;-50
2022/07/05 11:41:18;;;;;;;8.50;4.43;;;;;;;19.90;57.44;102141.19;4933222;29;20047;-47
2022/07/05 11:43:57;;;;;;;6.68;3.58;;;;;;;19.91;57.26;102146.41;4943044;29;20438;-46